Blue Hill, NE

7:53 PM CST on February 11, 2016 (GMT -0600)
Spring Ranch | | Change Station
CLOSE
Current Station
Personal Weather Station
Location: Glenvil, NE
Elevation: 1781 ft
Nearby Weather Stations

Elev 1781 ft 40.42 °N, 98.26 °W | Updated 3 seconds ago

Partly Cloudy
Partly Cloudy
31.6 °F
Feels Like 32 °F
N
0.0
Wind Variable Wind from WSW
Gusts 0.0 mph

Today
High -- | Low -- °F
--% Chance of Precip.
Yesterday
High -- | Low -- °F
Precip. -- in
Pressure 30.17 in
Visibility 10.0 miles
Clouds Scattered Clouds 10000 ft
Windchill 32 °F
Dew Point 29 °F
Humidity 91%
Rainfall 0.00 in
Snow Depth Not available.
7:32 AM 6:03 PM
Waxing Crescent, 16% visible
METAR KHSI 120053Z AUTO 21005KT 10SM SCT100 M01/M03 A3011 RMK AO2 SLP216 T10061028
Pressure 30.17 in
Visibility 10.0 miles
Clouds Scattered Clouds 10000 ft
Windchill 32 °F
Dew Point 29 °F
Humidity 91%
Rainfall 0.00 in
Snow Depth Not available.
7:32 AM 6:03 PM
Waxing Crescent, 16% visible
METAR KHSI 120053Z AUTO 21005KT 10SM SCT100 M01/M03 A3011 RMK AO2 SLP216 T10061028

10-Day Weather Forecast

Almanac

Astronomy

Feb. 11, 2016 Rise Set
Actual Time
Civil Twilight
Nautical Twilight
Astronomical Twilight
Moon
Length of Visible Light
Length of Day
Tomorrow will be .
, % of the Moon is Illuminated

Today's Extremes

State Highs State Lows

Community

WunderPhotos

Upload Photos

1,892,207 photos uploaded!

WunderBlog® & News

Nearby

Air Quality

  Air Quality AQ Index Pollutant
Not available.

Snow Depth

Station Depth Elevation

Earthquake Activity

City Distance Mag. Time & Date
Minimum magnitude displayed is 2.5.

Coastal Water Temperatures

Place Temperature

Stations

Nearby Weather Stations

Station Location Temp. Windchill Dew Point Humidity Wind Precip. Elev Updated Type
                   

Watches & Warnings

There are currently no watches in effect.